| time (UTC) | temp C | wind direction | speed KPH | gust KPH | rain 1hr cm | rain 24hr cm | rain mn cm | humidity % | barometer mb |
| 20260505190127 | 16 | 184 | 12.9 | 14.5 | 0.00 | 0.00 | 0.00 | 15 | 1014.7 |
| 20260505185624 | 16 | 175 | 11.3 | 12.9 | 0.00 | 0.00 | 0.00 | 15 | 1014.6 |
| 20260505185121 | 16 | 150 | 9.7 | 16.1 | 0.00 | 0.00 | 0.00 | 15 | 1014.7 |
| 20260505184617 | 15 | 175 | 9.7 | 12.9 | 0.00 | 0.00 | 0.00 | 15 | 1014.7 |
| 20260505184114 | 14 | 194 | 8.0 | 9.7 | 0.00 | 0.00 | 0.00 | 15 | 1014.7 |
| 20260505183611 | 15 | 144 | 12.9 | 14.5 | 0.00 | 0.00 | 0.00 | 15 | 1014.7 |
| 20260505183109 | 16 | 145 | 12.9 | 16.1 | 0.00 | 0.00 | 0.00 | 15 | 1014.6 |
| 20260505182605 | 15 | 147 | 8.0 | 9.7 | 0.00 | 0.00 | 0.00 | 15 | 1014.7 |
| 20260505182102 | 15 | 107 | 22.5 | 24.1 | 0.00 | 0.00 | 0.00 | 15 | 1014.7 |
| 20260505181558 | 14 | 120 | 12.9 | 14.5 | 0.00 | 0.00 | 0.00 | 15 | 1014.7 |
| 20260505181056 | 15 | 122 | 25.7 | 29.0 | 0.00 | 0.00 | 0.00 | 15 | 1014.8 |
| 20260505180551 | 14 | 108 | 14.5 | 17.7 | 0.00 | 0.00 | 0.00 | 15 | 1014.7 |
| 20260505180049 | 14 | 147 | 9.7 | 11.3 | 0.00 | 0.00 | 0.00 | 15 | 1014.7 |
| 20260505175550 | 13 | 168 | 16.1 | 17.7 | 0.00 | 0.00 | 0.00 | 15 | 1014.7 |
| 20260505175046 | 13 | 163 | 14.5 | 17.7 | 0.00 | 0.00 | 0.00 | 15 | 1014.8 |
| 20260505174544 | 13 | 151 | 14.5 | 17.7 | 0.00 | 0.00 | 0.00 | 15 | 1014.5 |
| 20260505174039 | 13 | 131 | 17.7 | 20.9 | 0.00 | 0.00 | 0.00 | 15 | 1014.6 |
| 20260505173536 | 13 | 136 | 8.0 | 9.7 | 0.00 | 0.00 | 0.00 | 15 | 1014.7 |
| 20260505173033 | 13 | 134 | 20.9 | 24.1 | 0.00 | 0.00 | 0.00 | 15 | 1014.6 |
| 20260505172531 | 13 | 129 | 20.9 | 27.4 | 0.00 | 0.00 | 0.00 | 15 | 1014.6 |
| 20260505172027 | 13 | 125 | 14.5 | 16.1 | 0.00 | 0.00 | 0.00 | 15 | 1014.4 |
| 20260505171522 | 12 | 153 | 14.5 | 16.1 | 0.00 | 0.00 | 0.00 | 15 | 1014.5 |
| 20260505171020 | 12 | 140 | 14.5 | 16.1 | 0.00 | 0.00 | 0.00 | 15 | 1014.4 |
| 20260505170516 | 12 | 161 | 17.7 | 20.9 | 0.00 | 0.00 | 0.00 | 15 | 1014.6 |
| 20260505170012 | 12 | 142 | 19.3 | 22.5 | 0.00 | 0.00 | 0.00 | 15 | 1014.6 |
| 20260505165502 | 12 | 147 | 20.9 | 22.5 | 0.00 | 0.00 | 0.00 | 15 | 1014.5 |
| 20260505164958 | 12 | 157 | 14.5 | 20.9 | 0.00 | 0.00 | 0.00 | 15 | 1014.6 |
| 20260505164454 | 12 | 124 | 14.5 | 17.7 | 0.00 | 0.00 | 0.00 | 15 | 1014.5 |
| 20260505163952 | 12 | 152 | 16.1 | 20.9 | 0.00 | 0.00 | 0.00 | 15 | 1014.4 |
| 20260505163451 | 12 | 145 | 12.9 | 14.5 | 0.00 | 0.00 | 0.00 | 15 | 1014.4 |
| 20260505162950 | 12 | 143 | 14.5 | 17.7 | 0.00 | 0.00 | 0.00 | 15 | 1014.6 |
| 20260505162445 | 11 | 149 | 11.3 | 12.9 | 0.00 | 0.00 | 0.00 | 15 | 1014.4 |
| 20260505161942 | 11 | 152 | 11.3 | 12.9 | 0.00 | 0.00 | 0.00 | 15 | 1014.5 |
| 20260505161439 | 11 | 130 | 11.3 | 12.9 | 0.00 | 0.00 | 0.00 | 15 | 1014.5 |
| 20260505160936 | 11 | 166 | 19.3 | 20.9 | 0.00 | 0.00 | 0.00 | 15 | 1014.4 |
| 20260505160435 | 11 | 147 | 12.9 | 12.9 | 0.00 | 0.00 | 0.00 | 15 | 1014.6 |
| 20260505152904 | 10 | 158 | 11.3 | 11.3 | 0.00 | 0.00 | 0.00 | 15 | 1014.5 |
| 20260505152401 | 10 | 143 | 8.0 | 9.7 | 0.00 | 0.00 | 0.00 | 15 | 1014.5 |
| 20260505151856 | 10 | 159 | 9.7 | 11.3 | 0.00 | 0.00 | 0.00 | 15 | 1014.1 |
| 20260505151353 | 10 | 153 | 11.3 | 11.3 | 0.00 | 0.00 | 0.00 | 15 | 1014.5 |
| 20260505150849 | 10 | 150 | 11.3 | 11.3 | 0.00 | 0.00 | 0.00 | 15 | 1014.5 |
| 20260505150341 | 10 | 140 | 8.0 | 9.7 | 0.00 | 0.00 | 0.00 | 15 | 1014.1 |
| 20260505140305 | 7 | 153 | 1.6 | 1.6 | 0.00 | 0.00 | 0.00 | 15 | 1013.9 |
| 20260505130229 | 6 | 122 | 4.8 | 4.8 | 0.00 | 0.00 | 0.00 | 15 | 1013.0 |
| 20260505124719 | 6 | 125 | 4.8 | 4.8 | 0.00 | 0.00 | 0.00 | 15 | 1012.8 |
| 20260505124216 | 6 | 129 | 4.8 | 4.8 | 0.00 | 0.00 | 0.00 | 15 | 1012.5 |
| 20260505123711 | 6 | 129 | 4.8 | 4.8 | 0.00 | 0.00 | 0.00 | 15 | 1012.5 |
| 20260505123208 | 6 | 121 | 8.0 | 8.0 | 0.00 | 0.00 | 0.00 | 15 | 1012.5 |
| 20260505122704 | 7 | 115 | 8.0 | 8.0 | 0.00 | 0.00 | 0.00 | 15 | 1012.5 |
| 20260505122201 | 7 | 109 | 8.0 | 8.0 | 0.00 | 0.00 | 0.00 | 15 | 1012.7 |
| 20260505121653 | 7 | 99 | 8.0 | 9.7 | 0.00 | 0.00 | 0.00 | 15 | 1012.5 |
| 20260505121149 | 7 | 109 | 8.0 | 9.7 | 0.00 | 0.00 | 0.00 | 15 | 1012.4 |
| 20260505120645 | 7 | 98 | 11.3 | 11.3 | 0.00 | 0.00 | 0.00 | 15 | 1012.5 |
| 20260505120141 | 7 | 111 | 8.0 | 9.7 | 0.00 | 0.00 | 0.00 | 15 | 1012.5 |
| 20260505115635 | 7 | 111 | 8.0 | 9.7 | 0.00 | 0.00 | 0.00 | 15 | 1012.5 |
| 20260505115134 | 7 | 120 | 6.4 | 9.7 | 0.00 | 0.00 | 0.00 | 15 | 1012.5 |
| 20260505114630 | 7 | 139 | 8.0 | 9.7 | 0.00 | 0.00 | 0.00 | 15 | 1012.9 |
| 20260505114127 | 8 | 130 | 9.7 | 9.7 | 0.00 | 0.00 | 0.00 | 15 | 1012.7 |
| 20260505113623 | 8 | 142 | 6.4 | 9.7 | 0.00 | 0.00 | 0.00 | 15 | 1012.5 |
| 20260505113120 | 8 | 114 | 9.7 | 11.3 | 0.00 | 0.00 | 0.00 | 15 | 1012.9 |
| 20260505112616 | 8 | 121 | 8.0 | 9.7 | 0.00 | 0.00 | 0.00 | 15 | 1012.7 |
| 20260505112114 | 8 | 105 | 8.0 | 9.7 | 0.00 | 0.00 | 0.00 | 15 | 1012.8 |
| 20260505111608 | 8 | 110 | 4.8 | 4.8 | 0.00 | 0.00 | 0.00 | 15 | 1012.8 |
| 20260505111104 | 7 | 108 | 4.8 | 4.8 | 0.00 | 0.00 | 0.00 | 15 | 1012.5 |
| 20260505110601 | 7 | 112 | 6.4 | 8.0 | 0.00 | 0.00 | 0.00 | 15 | 1012.5 |
| 20260505102033 | 8 | 143 | 0.0 | 0.0 | 0.00 | 0.00 | 0.00 | 15 | 1012.3 |
| 20260505101532 | 8 | 142 | 0.0 | 0.0 | 0.00 | 0.00 | 0.00 | 15 | 1012.2 |
| 20260505101027 | 8 | 139 | 0.0 | 0.0 | 0.00 | 0.00 | 0.00 | 15 | 1012.4 |
| 20260505100525 | 8 | 137 | 1.6 | 1.6 | 0.00 | 0.00 | 0.00 | 15 | 1012.3 |
| 20260505100021 | 9 | 138 | 4.8 | 4.8 | 0.00 | 0.00 | 0.00 | 15 | 1012.4 |
| 20260505095517 | 9 | 139 | 4.8 | 4.8 | 0.00 | 0.00 | 0.00 | 15 | 1012.2 |
| 20260505095014 | 9 | 136 | 6.4 | 8.0 | 0.00 | 0.00 | 0.00 | 15 | 1012.2 |
| 20260505094511 | 10 | 153 | 9.7 | 11.3 | 0.00 | 0.00 | 0.00 | 15 | 1012.2 |
| 20260505094007 | 10 | 153 | 3.2 | 3.2 | 0.00 | 0.00 | 0.00 | 15 | 1012.1 |
| 20260505093503 | 10 | 153 | 8.0 | 11.3 | 0.00 | 0.00 | 0.00 | 15 | 1012.1 |
| 20260505093001 | 10 | 124 | 9.7 | 11.3 | 0.00 | 0.00 | 0.00 | 15 | 1012.2 |
| 20260505092458 | 10 | 135 | 6.4 | 8.0 | 0.00 | 0.00 | 0.00 | 15 | 1011.9 |
| 20260505091956 | 10 | 122 | 8.0 | 9.7 | 0.00 | 0.00 | 0.00 | 15 | 1012.0 |
| 20260505091453 | 10 | 125 | 4.8 | 4.8 | 0.00 | 0.00 | 0.00 | 15 | 1011.9 |
| 20260505090951 | 10 | 112 | 6.4 | 8.0 | 0.00 | 0.00 | 0.00 | 15 | 1011.9 |
| 20260505090449 | 10 | 106 | 8.0 | 8.0 | 0.00 | 0.00 | 0.00 | 15 | 1011.9 |
| 20260505085946 | 10 | 107 | 4.8 | 4.8 | 0.00 | 0.00 | 0.00 | 15 | 1012.0 |
| 20260505085444 | 10 | 104 | 6.4 | 8.0 | 0.00 | 0.00 | 0.00 | 15 | 1012.0 |
| 20260505084942 | 10 | 97 | 8.0 | 11.3 | 0.00 | 0.00 | 0.00 | 15 | 1011.8 |
| 20260505084440 | 10 | 121 | 3.2 | 3.2 | 0.00 | 0.00 | 0.00 | 15 | 1012.0 |
| 20260505083937 | 10 | 115 | 6.4 | 8.0 | 0.00 | 0.00 | 0.00 | 15 | 1011.9 |
| 20260505083434 | 10 | 111 | 6.4 | 8.0 | 0.00 | 0.00 | 0.00 | 15 | 1012.1 |
| 20260505082931 | 10 | 116 | 4.8 | 4.8 | 0.00 | 0.00 | 0.00 | 15 | 1011.9 |
| 20260505082426 | 10 | 118 | 6.4 | 8.0 | 0.00 | 0.00 | 0.00 | 15 | 1012.1 |
| 20260505081924 | 10 | 127 | 4.8 | 4.8 | 0.00 | 0.00 | 0.00 | 15 | 1012.1 |
| 20260505081421 | 10 | 125 | 6.4 | 8.0 | 0.00 | 0.00 | 0.00 | 15 | 1011.9 |
| 20260505080917 | 10 | 118 | 11.3 | 12.9 | 0.00 | 0.00 | 0.00 | 15 | 1012.0 |
| 20260505080413 | 10 | 109 | 12.9 | 14.5 | 0.00 | 0.00 | 0.00 | 15 | 1012.0 |
| 20260505075909 | 10 | 112 | 8.0 | 11.3 | 0.00 | 0.00 | 0.00 | 15 | 1012.0 |
| 20260505075406 | 10 | 112 | 9.7 | 11.3 | 0.00 | 0.00 | 0.00 | 15 | 1011.9 |
| 20260505074903 | 10 | 109 | 9.7 | 12.9 | 0.00 | 0.00 | 0.00 | 15 | 1011.9 |
| 20260505074400 | 11 | 101 | 11.3 | 14.5 | 0.00 | 0.00 | 0.00 | 15 | 1011.8 |
| 20260505073857 | 11 | 105 | 9.7 | 11.3 | 0.00 | 0.00 | 0.00 | 15 | 1012.0 |
| 20260505073355 | 11 | 104 | 11.3 | 14.5 | 0.00 | 0.00 | 0.00 | 15 | 1012.0 |
| 20260505072852 | 11 | 111 | 8.0 | 9.7 | 0.00 | 0.00 | 0.00 | 15 | 1011.8 |
| 20260505072348 | 11 | 108 | 8.0 | 9.7 | 0.00 | 0.00 | 0.00 | 15 | 1011.8 |
| 20260505071844 | 11 | 97 | 11.3 | 11.3 | 0.00 | 0.00 | 0.00 | 15 | 1012.1 |
| 20260505071341 | 10 | 110 | 4.8 | 4.8 | 0.00 | 0.00 | 0.00 | 15 | 1011.8 |
| 20260505070839 | 10 | 103 | 8.0 | 9.7 | 0.00 | 0.00 | 0.00 | 15 | 1011.6 |
| 20260505070335 | 10 | 156 | 0.0 | 0.0 | 0.00 | 0.00 | 0.00 | 15 | 1011.8 |
| 20260505065830 | 10 | 161 | 0.0 | 0.0 | 0.00 | 0.00 | 0.00 | 15 | 1011.6 |
| 20260505065327 | 10 | 168 | 0.0 | 0.0 | 0.00 | 0.00 | 0.00 | 15 | 1011.8 |
| 20260505064825 | 10 | 170 | 0.0 | 0.0 | 0.00 | 0.00 | 0.00 | 15 | 1011.4 |
| 20260505064321 | 11 | 168 | 0.0 | 0.0 | 0.00 | 0.00 | 0.00 | 15 | 1011.9 |
| 20260505063820 | 11 | 175 | 4.8 | 4.8 | 0.00 | 0.00 | 0.00 | 15 | 1011.6 |
| 20260505063315 | 11 | 164 | 8.0 | 8.0 | 0.00 | 0.00 | 0.00 | 15 | 1012.0 |
| 20260505062812 | 11 | 175 | 4.8 | 4.8 | 0.00 | 0.00 | 0.00 | 15 | 1011.6 |
| 20260505062310 | 11 | 161 | 9.7 | 11.3 | 0.00 | 0.00 | 0.00 | 15 | 1011.6 |
| 20260505061806 | 11 | 191 | 8.0 | 9.7 | 0.00 | 0.00 | 0.00 | 15 | 1011.5 |
| 20260505061305 | 11 | 177 | 11.3 | 11.3 | 0.00 | 0.00 | 0.00 | 15 | 1011.8 |
| 20260505060802 | 11 | 205 | 19.3 | 22.5 | 0.00 | 0.00 | 0.00 | 15 | 1010.6 |
| 20260505060259 | 11 | 194 | 8.0 | 11.3 | 0.00 | 0.00 | 0.00 | 15 | 1011.8 |
| 20260505055754 | 11 | 190 | 9.7 | 12.9 | 0.00 | 0.00 | 0.00 | 15 | 1012.0 |
| 20260505055250 | 11 | 159 | 11.3 | 12.9 | 0.00 | 0.00 | 0.00 | 15 | 1012.1 |
| 20260505054748 | 12 | 153 | 9.7 | 11.3 | 0.00 | 0.00 | 0.00 | 15 | 1011.9 |
| 20260505054245 | 12 | 129 | 22.5 | 24.1 | 0.00 | 0.00 | 0.00 | 15 | 1012.1 |
| 20260505053743 | 12 | 100 | 20.9 | 25.7 | 0.00 | 0.00 | 0.00 | 15 | 1012.3 |
| 20260505053240 | 12 | 111 | 16.1 | 17.7 | 0.00 | 0.00 | 0.00 | 15 | 1012.2 |
| 20260505052737 | 12 | 94 | 14.5 | 16.1 | 0.00 | 0.00 | 0.00 | 15 | 1012.1 |
| 20260505052234 | 12 | 95 | 14.5 | 16.1 | 0.00 | 0.00 | 0.00 | 15 | 1012.3 |
| 20260505051731 | 12 | 72 | 14.5 | 16.1 | 0.00 | 0.00 | 0.00 | 15 | 1012.1 |
| 20260505051229 | 12 | 72 | 12.9 | 14.5 | 0.00 | 0.00 | 0.00 | 15 | 1011.9 |
| 20260505050727 | 12 | 90 | 8.0 | 9.7 | 0.00 | 0.00 | 0.00 | 15 | 1011.8 |
| 20260505050225 | 12 | 146 | 4.8 | 4.8 | 0.00 | 0.00 | 0.00 | 15 | 1011.5 |
| 20260505041654 | 13 | 142 | 22.5 | 25.7 | 0.00 | 0.00 | 0.00 | 15 | 1011.5 |
| 20260505041152 | 13 | 134 | 30.6 | 33.8 | 0.00 | 0.00 | 0.00 | 15 | 1011.6 |
| 20260505040649 | 13 | 137 | 24.1 | 27.4 | 0.00 | 0.00 | 0.00 | 15 | 1011.4 |
| 20260505040146 | 13 | 132 | 24.1 | 27.4 | 0.00 | 0.00 | 0.00 | 15 | 1011.1 |
| 20260505035642 | 14 | 133 | 25.7 | 29.0 | 0.00 | 0.00 | 0.00 | 15 | 1011.0 |
| 20260505035138 | 14 | 128 | 19.3 | 22.5 | 0.00 | 0.00 | 0.00 | 15 | 1010.7 |
| 20260505034635 | 14 | 121 | 14.5 | 16.1 | 0.00 | 0.00 | 0.00 | 15 | 1010.2 |
| 20260505034132 | 13 | 117 | 11.3 | 12.9 | 0.00 | 0.00 | 0.00 | 15 | 1010.1 |
| 20260505033628 | 13 | 104 | 11.3 | 12.9 | 0.00 | 0.00 | 0.00 | 15 | 1010.2 |
| 20260505033127 | 13 | 98 | 11.3 | 11.3 | 0.00 | 0.00 | 0.00 | 15 | 1010.1 |
| 20260505032625 | 13 | 112 | 4.8 | 4.8 | 0.00 | 0.00 | 0.00 | 15 | 1009.8 |
| 20260505032121 | 14 | 116 | 9.7 | 11.3 | 0.00 | 0.00 | 0.00 | 15 | 1009.6 |
| 20260505031618 | 15 | 133 | 8.0 | 8.0 | 0.00 | 0.00 | 0.00 | 15 | 1009.8 |
| 20260505031114 | 14 | 151 | 4.8 | 4.8 | 0.00 | 0.00 | 0.00 | 15 | 1009.8 |
| 20260505030611 | 14 | 166 | 3.2 | 3.2 | 0.00 | 0.00 | 0.00 | 15 | 1009.8 |
| 20260505030107 | 14 | 172 | 3.2 | 3.2 | 0.00 | 0.00 | 0.00 | 15 | 1009.7 |
| 20260505025602 | 14 | 192 | 1.6 | 1.6 | 0.00 | 0.00 | 0.00 | 15 | 1009.8 |
| 20260505025057 | 15 | 207 | 4.8 | 4.8 | 0.00 | 0.00 | 0.00 | 15 | 1009.8 |
| 20260505024553 | 15 | 201 | 6.4 | 8.0 | 0.00 | 0.00 | 0.00 | 15 | 1009.9 |
| 20260505024051 | 15 | 199 | 8.0 | 8.0 | 0.00 | 0.00 | 0.00 | 15 | 1009.7 |
| 20260505023548 | 15 | 193 | 8.0 | 9.7 | 0.00 | 0.00 | 0.00 | 15 | 1009.9 |
| 20260505023045 | 15 | 194 | 9.7 | 12.9 | 0.00 | 0.00 | 0.00 | 15 | 1009.7 |
| 20260505022542 | 16 | 173 | 9.7 | 11.3 | 0.00 | 0.00 | 0.00 | 15 | 1010.1 |
| 20260505022040 | 16 | 194 | 11.3 | 12.9 | 0.00 | 0.00 | 0.00 | 15 | 1009.8 |
| 20260505021536 | 16 | 170 | 20.9 | 24.1 | 0.00 | 0.00 | 0.00 | 15 | 1010.1 |
| 20260505021033 | 16 | 188 | 17.7 | 20.9 | 0.00 | 0.00 | 0.00 | 15 | 1010.3 |
| 20260505020532 | 16 | 162 | 11.3 | 14.5 | 0.00 | 0.00 | 0.00 | 15 | 1009.9 |
| 20260505020030 | 16 | 160 | 25.7 | 29.0 | 0.00 | 0.00 | 0.00 | 15 | 1010.2 |
| 20260505015527 | 16 | 161 | 22.5 | 27.4 | 0.00 | 0.00 | 0.00 | 15 | 1010.2 |
| 20260505015024 | 16 | 167 | 17.7 | 22.5 | 0.00 | 0.00 | 0.00 | 15 | 1009.9 |
| 20260505014520 | 16 | 166 | 27.4 | 33.8 | 0.00 | 0.00 | 0.00 | 15 | 1009.9 |
| 20260505014018 | 16 | 149 | 25.7 | 29.0 | 0.00 | 0.00 | 0.00 | 15 | 1010.2 |
| 20260505013515 | 16 | 164 | 30.6 | 33.8 | 0.00 | 0.00 | 0.00 | 15 | 1010.1 |
| 20260505013012 | 17 | 176 | 19.3 | 33.8 | 0.00 | 0.00 | 0.00 | 15 | 1010.2 |
| 20260505012510 | 17 | 164 | 27.4 | 33.8 | 0.00 | 0.00 | 0.00 | 15 | 1010.1 |
| 20260505012007 | 17 | 164 | 32.2 | 37.0 | 0.00 | 0.00 | 0.00 | 15 | 1009.8 |
| 20260505011502 | 17 | 162 | 27.4 | 32.2 | 0.00 | 0.00 | 0.00 | 15 | 1009.7 |
| 20260505011000 | 18 | 177 | 25.7 | 29.0 | 0.00 | 0.00 | 0.00 | 15 | 1009.6 |
| 20260505010455 | 18 | 178 | 33.8 | 35.4 | 0.00 | 0.00 | 0.00 | 15 | 1009.7 |
| 20260505005951 | 17 | 186 | 24.1 | 27.4 | 0.00 | 0.00 | 0.00 | 15 | 1009.5 |
| 20260505005448 | 17 | 170 | 24.1 | 27.4 | 0.00 | 0.00 | 0.00 | 15 | 1009.4 |
| 20260505004946 | 18 | 177 | 29.0 | 33.8 | 0.00 | 0.00 | 0.00 | 15 | 1009.3 |
| 20260505004442 | 18 | 173 | 27.4 | 37.0 | 0.00 | 0.00 | 0.00 | 15 | 1009.4 |
| 20260505003939 | 18 | 168 | 29.0 | 33.8 | 0.00 | 0.00 | 0.00 | 15 | 1009.0 |
| 20260505003437 | 17 | 154 | 29.0 | 29.0 | 0.00 | 0.00 | 0.00 | 15 | 1009.0 |
| 20260505002933 | 17 | 158 | 20.9 | 27.4 | 0.00 | 0.00 | 0.00 | 15 | 1009.1 |
| 20260505002429 | 17 | 175 | 14.5 | 20.9 | 0.00 | 0.00 | 0.00 | 15 | 1008.8 |
| 20260505001928 | 17 | 137 | 19.3 | 22.5 | 0.00 | 0.00 | 0.00 | 15 | 1008.9 |
| 20260505001425 | 17 | 160 | 24.1 | 25.7 | 0.00 | 0.00 | 0.00 | 15 | 1008.9 |
| 20260505000921 | 17 | 159 | 17.7 | 20.9 | 0.00 | 0.00 | 0.00 | 15 | 1009.1 |
| 20260505000420 | 17 | 131 | 19.3 | 22.5 | 0.00 | 0.00 | 0.00 | 15 | 1009.7 |
| 20260504235916 | 17 | 115 | 27.4 | 29.0 | 0.00 | 0.00 | 0.00 | 15 | 1009.5 |
| 20260504235408 | 17 | 142 | 24.1 | 27.4 | 0.00 | 0.00 | 0.00 | 15 | 1009.1 |
| 20260504234904 | 17 | 162 | 22.5 | 29.0 | 0.00 | 0.00 | 0.00 | 15 | 1009.0 |
| 20260504234402 | 17 | 146 | 27.4 | 33.8 | 0.00 | 0.00 | 0.00 | 15 | 1008.8 |
| 20260504233858 | 17 | 178 | 29.0 | 35.4 | 0.00 | 0.00 | 0.00 | 15 | 1008.6 |
| 20260504233354 | 17 | 170 | 22.5 | 25.7 | 0.00 | 0.00 | 0.00 | 15 | 1008.6 |
| 20260504232850 | 17 | 166 | 27.4 | 33.8 | 0.00 | 0.00 | 0.00 | 15 | 1008.4 |
| 20260504232348 | 17 | 161 | 30.6 | 43.5 | 0.00 | 0.00 | 0.00 | 15 | 1008.2 |
| 20260504231844 | 17 | 171 | 38.6 | 48.3 | 0.00 | 0.00 | 0.00 | 15 | 1008.5 |
| 20260504231341 | 17 | 155 | 38.6 | 46.7 | 0.00 | 0.00 | 0.00 | 15 | 1008.5 |
| 20260504230837 | 18 | 159 | 45.1 | 49.9 | 0.00 | 0.00 | 0.00 | 15 | 1008.4 |
| 20260504230335 | 17 | 139 | 41.8 | 51.5 | 0.00 | 0.00 | 0.00 | 15 | 1008.1 |
| 20260504225834 | 18 | 170 | 35.4 | 40.2 | 0.00 | 0.00 | 0.00 | 15 | 1007.9 |
| 20260504225330 | 18 | 190 | 48.3 | 59.5 | 0.00 | 0.00 | 0.00 | 15 | 1007.9 |
| 20260504224827 | 18 | 147 | 35.4 | 41.8 | 0.00 | 0.00 | 0.00 | 15 | 1007.7 |
| 20260504224324 | 18 | 197 | 38.6 | 46.7 | 0.00 | 0.00 | 0.00 | 15 | 1007.6 |
| 20260504223821 | 18 | 164 | 43.5 | 46.7 | 0.00 | 0.00 | 0.00 | 15 | 1007.6 |
| 20260504223316 | 20 | 181 | 51.5 | 56.3 | 0.00 | 0.00 | 0.00 | 15 | 1007.6 |
| 20260504222813 | 21 | 183 | 40.2 | 48.3 | 0.00 | 0.00 | 0.00 | 15 | 1007.3 |
| 20260504222310 | 24 | 183 | 20.9 | 22.5 | 0.00 | 0.00 | 0.00 | 15 | 1007.8 |
| 20260504221808 | 23 | 196 | 16.1 | 17.7 | 0.00 | 0.00 | 0.00 | 15 | 1007.9 |
| 20260504221305 | 23 | 168 | 12.9 | 16.1 | 0.00 | 0.00 | 0.00 | 15 | 1007.7 |
| 20260504220802 | 23 | 213 | 8.0 | 9.7 | 0.00 | 0.00 | 0.00 | 15 | 1007.8 |
| 20260504220258 | 23 | 190 | 4.8 | 8.0 | 0.00 | 0.00 | 0.00 | 15 | 1007.8 |
| 20260504215756 | 23 | 148 | 1.6 | 3.2 | 0.00 | 0.00 | 0.00 | 15 | 1007.8 |
| 20260504215252 | 23 | 186 | 8.0 | 9.7 | 0.00 | 0.00 | 0.00 | 15 | 1008.0 |
| 20260504214748 | 22 | 179 | 0.0 | 0.0 | 0.00 | 0.00 | 0.00 | 15 | 1007.8 |
| 20260504214244 | 22 | 108 | 4.8 | 4.8 | 0.00 | 0.00 | 0.00 | 15 | 1007.8 |
| 20260504213741 | 22 | 132 | 12.9 | 17.7 | 0.00 | 0.00 | 0.00 | 15 | 1008.0 |
| 20260504213232 | 22 | 151 | 1.6 | 4.8 | 0.00 | 0.00 | 0.00 | 15 | 1008.1 |
| 20260504212729 | 24 | 147 | 6.4 | 8.0 | 0.00 | 0.00 | 0.00 | 15 | 1008.5 |
| 20260504212225 | 23 | 187 | 8.0 | 9.7 | 0.00 | 0.00 | 0.00 | 15 | 1008.5 |
| 20260504211722 | 22 | 142 | 4.8 | 4.8 | 0.00 | 0.00 | 0.00 | 15 | 1008.6 |
| 20260504211213 | 22 | 70 | 4.8 | 4.8 | 0.00 | 0.00 | 0.00 | 15 | 1008.6 |
| 20260504210711 | 22 | 207 | 3.2 | 3.2 | 0.00 | 0.00 | 0.00 | 15 | 1008.6 |
| 20260504210208 | 22 | 240 | 9.7 | 11.3 | 0.00 | 0.00 | 0.00 | 15 | 1008.8 |
| 20260504205705 | 21 | 212 | 11.3 | 12.9 | 0.00 | 0.00 | 0.00 | 15 | 1008.9 |
| 20260504205202 | 21 | 201 | 8.0 | 11.3 | 0.00 | 0.00 | 0.00 | 15 | 1009.1 |
| 20260504204701 | 21 | 171 | 11.3 | 11.3 | 0.00 | 0.00 | 0.00 | 15 | 1009.1 |
| 20260504204159 | 21 | 156 | 8.0 | 9.7 | 0.00 | 0.00 | 0.00 | 15 | 1009.1 |
| 20260504203657 | 21 | 136 | 11.3 | 11.3 | 0.00 | 0.00 | 0.00 | 15 | 1009.4 |
| 20260504203154 | 21 | 158 | 14.5 | 16.1 | 0.00 | 0.00 | 0.00 | 15 | 1009.1 |
| 20260504202649 | 21 | 185 | 14.5 | 16.1 | 0.00 | 0.00 | 0.00 | 15 | 1009.4 |
| 20260504202146 | 21 | 192 | 6.4 | 8.0 | 0.00 | 0.00 | 0.00 | 15 | 1009.5 |
| 20260504201643 | 21 | 197 | 11.3 | 11.3 | 0.00 | 0.00 | 0.00 | 15 | 1009.5 |
| 20260504201141 | 22 | 189 | 16.1 | 17.7 | 0.00 | 0.00 | 0.00 | 15 | 1009.4 |
| 20260504200638 | 22 | 162 | 6.4 | 8.0 | 0.00 | 0.00 | 0.00 | 15 | 1009.5 |
| 20260504200134 | 22 | 156 | 17.7 | 17.7 | 0.00 | 0.00 | 0.00 | 15 | 1009.5 |
| 20260504195630 | 22 | 159 | 11.3 | 12.9 | 0.00 | 0.00 | 0.00 | 15 | 1009.5 |
| 20260504195127 | 22 | 132 | 6.4 | 9.7 | 0.00 | 0.00 | 0.00 | 15 | 1009.8 |
| 20260504194624 | 22 | 94 | 16.1 | 20.9 | 0.00 | 0.00 | 0.00 | 15 | 1009.7 |
| 20260504194120 | 22 | 118 | 16.1 | 16.1 | 0.00 | 0.00 | 0.00 | 15 | 1009.8 |
| 20260504193616 | 21 | 132 | 24.1 | 25.7 | 0.00 | 0.00 | 0.00 | 15 | 1009.7 |
| 20260504193114 | 21 | 171 | 8.0 | 8.0 | 0.00 | 0.00 | 0.00 | 15 | 1010.1 |
| 20260504192612 | 22 | 161 | 14.5 | 14.5 | 0.00 | 0.00 | 0.00 | 15 | 1009.9 |
| 20260504192110 | 22 | 183 | 9.7 | 11.3 | 0.00 | 0.00 | 0.00 | 15 | 1010.1 |
| 20260504191608 | 21 | 166 | 11.3 | 12.9 | 0.00 | 0.00 | 0.00 | 15 | 1010.3 |
| 20260504191104 | 21 | 193 | 14.5 | 17.7 | 0.00 | 0.00 | 0.00 | 15 | 1010.3 |